createdAt,value
2017-09-04T00:01:14.743Z,86.21
2017-09-04T00:03:43.053Z,85.93
2017-09-04T00:06:11.378Z,86.00
2017-09-04T00:08:39.697Z,86.25
2017-09-04T00:11:08.027Z,86.27
2017-09-04T00:13:36.336Z,86.78
2017-09-04T00:16:04.682Z,86.55
2017-09-04T00:18:32.994Z,86.77
2017-09-04T00:21:01.323Z,87.27
2017-09-04T00:23:29.624Z,86.79
2017-09-04T00:25:57.944Z,87.32
2017-09-04T00:28:26.253Z,87.63
2017-09-04T00:30:54.561Z,87.69
2017-09-04T00:33:22.867Z,87.92
2017-09-04T00:35:51.182Z,87.70
2017-09-04T00:38:19.520Z,87.66
2017-09-04T00:40:47.839Z,87.93
2017-09-04T00:43:16.161Z,87.76
2017-09-04T00:45:44.477Z,87.82
2017-09-04T00:48:12.793Z,87.54
2017-09-04T00:50:41.104Z,87.88
2017-09-04T00:53:09.408Z,87.78
2017-09-04T00:55:37.722Z,88.06
2017-09-04T00:58:06.024Z,88.70
2017-09-04T01:00:34.343Z,88.77
2017-09-04T01:03:02.645Z,88.70
2017-09-04T01:05:30.973Z,88.50
2017-09-04T01:07:59.280Z,88.41
2017-09-04T01:10:27.604Z,89.15
2017-09-04T01:12:55.914Z,89.55
2017-09-04T01:15:24.256Z,90.43
2017-09-04T01:17:52.563Z,90.36
2017-09-04T01:20:20.848Z,90.20
2017-09-04T01:22:49.153Z,90.32
2017-09-04T01:25:17.458Z,90.51
2017-09-04T01:27:45.765Z,90.61
2017-09-04T01:30:14.082Z,90.51
2017-09-04T01:32:42.409Z,90.14
2017-09-04T01:35:10.713Z,90.19
2017-09-04T01:37:39.025Z,90.49
2017-09-04T01:40:07.341Z,90.65
2017-09-04T01:42:35.655Z,90.54
2017-09-04T01:45:03.979Z,90.39
2017-09-04T01:47:32.277Z,90.35
2017-09-04T01:50:00.590Z,90.11
2017-09-04T01:52:28.910Z,89.72
2017-09-04T01:54:57.220Z,89.90
2017-09-04T01:57:25.517Z,89.71
2017-09-04T01:59:53.826Z,89.59
2017-09-04T02:02:22.141Z,89.24
2017-09-04T02:04:50.441Z,89.22
2017-09-04T02:07:18.769Z,89.71
2017-09-04T02:09:47.082Z,89.29
2017-09-04T02:12:15.412Z,89.11
2017-09-04T02:14:43.722Z,89.14
2017-09-04T02:17:12.056Z,88.71
2017-09-04T02:19:40.354Z,88.70
2017-09-04T02:22:08.654Z,88.68
2017-09-04T02:24:36.972Z,88.27
2017-09-04T02:27:05.283Z,88.12
2017-09-04T02:29:33.588Z,88.11
2017-09-04T02:32:02.043Z,88.41
2017-09-04T02:34:30.341Z,88.67
2017-09-04T02:36:58.650Z,88.70
2017-09-04T02:39:26.972Z,89.14
2017-09-04T02:41:55.265Z,88.63
2017-09-04T02:44:23.574Z,88.97
2017-09-04T02:46:51.886Z,88.68
2017-09-04T02:49:20.205Z,88.45
2017-09-04T02:51:48.523Z,88.50
2017-09-04T02:54:16.831Z,89.15
2017-09-04T02:56:45.185Z,89.41
2017-09-04T02:59:13.489Z,89.19
2017-09-04T03:01:41.847Z,89.27
2017-09-04T03:04:10.140Z,89.39
2017-09-04T03:06:38.440Z,89.76
2017-09-04T03:09:06.742Z,89.44
2017-09-04T03:11:35.065Z,90.27
2017-09-04T03:14:03.375Z,90.21
2017-09-04T03:16:31.690Z,89.97
2017-09-04T03:19:00.023Z,89.89
2017-09-04T03:21:28.321Z,90.09
2017-09-04T03:23:56.657Z,90.04
2017-09-04T03:26:24.949Z,90.21
2017-09-04T03:28:53.240Z,90.10
2017-09-04T03:31:21.553Z,90.22
2017-09-04T03:33:49.883Z,90.46
2017-09-04T03:36:18.202Z,90.07
2017-09-04T03:38:46.515Z,90.17
2017-09-04T03:41:14.816Z,90.05
2017-09-04T03:43:43.116Z,90.34
2017-09-04T03:46:11.424Z,90.73
2017-09-04T03:48:39.714Z,90.84
2017-09-04T03:51:08.045Z,90.81
2017-09-04T03:53:36.364Z,90.63
2017-09-04T03:56:04.664Z,91.05
2017-09-04T03:58:32.974Z,91.20
2017-09-04T04:01:01.273Z,90.96
2017-09-04T04:03:29.580Z,90.70
2017-09-04T04:05:57.874Z,90.62
2017-09-04T04:08:26.191Z,90.77
2017-09-04T04:10:54.492Z,90.62
2017-09-04T04:13:22.837Z,90.16
2017-09-04T04:15:51.142Z,90.53
2017-09-04T04:18:19.449Z,90.93
2017-09-04T04:20:47.769Z,91.15
2017-09-04T04:23:16.065Z,91.18
2017-09-04T04:25:44.396Z,91.21
2017-09-04T04:28:12.698Z,91.34
2017-09-04T04:30:41.016Z,91.40
2017-09-04T04:33:09.333Z,90.71
2017-09-04T04:35:37.660Z,90.52
2017-09-04T04:38:05.961Z,90.69
2017-09-04T04:40:34.284Z,90.36
2017-09-04T04:43:02.612Z,90.15
2017-09-04T04:45:30.917Z,90.05
2017-09-04T04:47:59.229Z,90.17
2017-09-04T04:50:27.542Z,90.09
2017-09-04T04:52:55.845Z,89.86
2017-09-04T04:55:24.144Z,89.71
2017-09-04T04:57:52.476Z,89.15
2017-09-04T05:00:20.784Z,89.11
2017-09-04T05:02:49.092Z,89.33
2017-09-04T05:05:17.400Z,89.42
2017-09-04T05:07:45.705Z,89.34
2017-09-04T05:10:14.009Z,89.14
2017-09-04T05:12:42.317Z,88.85
2017-09-04T05:15:10.626Z,88.54
2017-09-04T05:17:38.937Z,88.27
2017-09-04T05:20:07.415Z,87.90
2017-09-04T05:22:35.712Z,87.67
2017-09-04T05:25:04.017Z,87.66
2017-09-04T05:27:32.323Z,87.26
2017-09-04T05:30:00.736Z,86.86
2017-09-04T05:32:29.101Z,86.36
2017-09-04T05:34:57.423Z,85.85
2017-09-04T05:37:25.755Z,85.79
2017-09-04T05:39:54.053Z,85.22
2017-09-04T05:42:22.384Z,84.97
2017-09-04T05:44:50.749Z,85.07
2017-09-04T05:47:19.053Z,84.62
2017-09-04T05:49:47.374Z,84.18
2017-09-04T05:52:15.681Z,83.90
2017-09-04T05:54:43.981Z,83.56
2017-09-04T05:57:12.287Z,82.95
2017-09-04T05:59:40.599Z,82.66
2017-09-04T06:02:08.905Z,82.53
2017-09-04T06:04:37.222Z,82.57
2017-09-04T06:07:05.527Z,82.65
2017-09-04T06:09:33.852Z,82.06
2017-09-04T06:12:02.176Z,81.41
2017-09-04T06:14:30.486Z,81.11
2017-09-04T06:16:58.806Z,80.79
2017-09-04T06:19:27.112Z,80.40
2017-09-04T06:21:55.421Z,79.95
2017-09-04T06:24:23.722Z,79.13
2017-09-04T06:26:52.042Z,78.76
2017-09-04T06:29:20.346Z,78.11
2017-09-04T06:31:48.681Z,78.10
2017-09-04T06:34:16.972Z,77.41
2017-09-04T06:36:45.268Z,76.92
2017-09-04T06:39:13.581Z,76.33
2017-09-04T06:41:41.906Z,76.72
2017-09-04T06:44:10.221Z,76.29
2017-09-04T06:46:38.523Z,75.21
2017-09-04T06:49:06.843Z,75.08
2017-09-04T06:51:35.150Z,75.21
2017-09-04T06:54:03.469Z,75.36
2017-09-04T06:56:31.769Z,75.09
2017-09-04T06:59:00.137Z,74.79
2017-09-04T07:01:28.416Z,72.98
2017-09-04T07:03:56.714Z,70.98
2017-09-04T07:06:25.037Z,71.30
2017-09-04T07:08:53.335Z,71.20
2017-09-04T07:11:21.702Z,70.65
2017-09-04T07:13:50.002Z,69.94
2017-09-04T07:16:18.300Z,69.29
2017-09-04T07:18:46.612Z,69.23
2017-09-04T07:21:15.045Z,68.99
2017-09-04T07:23:43.342Z,68.28
2017-09-04T07:26:11.656Z,67.68
2017-09-04T07:28:39.964Z,67.65
2017-09-04T07:31:08.274Z,67.16
2017-09-04T07:33:36.582Z,66.19
2017-09-04T07:36:04.876Z,65.11
2017-09-04T07:38:33.176Z,65.90
2017-09-04T07:41:01.481Z,64.79
2017-09-04T07:43:29.829Z,63.96
2017-09-04T07:45:58.545Z,63.27
2017-09-04T07:48:26.841Z,62.73
2017-09-04T07:50:55.151Z,62.64
2017-09-04T07:53:23.441Z,62.35
2017-09-04T07:55:51.754Z,61.65
2017-09-04T07:58:20.052Z,60.35
2017-09-04T08:00:48.373Z,58.96
2017-09-04T08:03:16.664Z,57.92
2017-09-04T08:05:44.972Z,57.47
2017-09-04T08:08:13.267Z,57.89
2017-09-04T08:10:41.665Z,58.52
2017-09-04T08:13:09.961Z,58.48
2017-09-04T08:15:38.265Z,56.77
2017-09-04T08:18:06.600Z,57.02
2017-09-04T08:20:34.892Z,57.31
2017-09-04T08:23:03.192Z,55.26
2017-09-04T08:25:31.494Z,54.25
2017-09-04T08:27:59.819Z,53.70
2017-09-04T08:30:28.113Z,54.44
2017-09-04T08:32:56.441Z,53.16
2017-09-04T08:35:24.774Z,53.61
2017-09-04T08:37:53.061Z,52.67
2017-09-04T08:40:21.367Z,53.47
2017-09-04T08:42:49.659Z,52.51
2017-09-04T08:45:17.969Z,51.80
2017-09-04T08:47:46.269Z,51.35
2017-09-04T08:50:14.570Z,51.97
2017-09-04T08:52:42.872Z,50.47
2017-09-04T08:55:11.185Z,50.58
2017-09-04T08:57:39.486Z,49.67
2017-09-04T09:00:07.797Z,50.23
2017-09-04T09:02:36.105Z,50.33
2017-09-04T09:05:04.398Z,48.52
2017-09-04T09:07:32.713Z,48.69
2017-09-04T09:10:01.007Z,49.53
2017-09-04T09:12:29.309Z,50.46
2017-09-04T09:14:57.609Z,47.12
2017-09-04T09:17:25.918Z,45.63
2017-09-04T09:19:54.216Z,39.41
2017-09-04T09:22:22.521Z,34.95
2017-09-04T09:24:50.824Z,31.54
2017-09-04T09:27:23.915Z,25.33
2017-09-04T09:29:52.229Z,26.23
2017-09-04T09:32:20.531Z,26.82
2017-09-04T09:34:48.832Z,33.17
2017-09-04T09:37:17.121Z,40.25
2017-09-04T09:39:45.551Z,33.07
2017-09-04T09:42:13.856Z,30.12
2017-09-04T09:44:42.204Z,25.83
2017-09-04T09:47:10.500Z,28.05
2017-09-04T09:49:38.800Z,27.59
2017-09-04T09:52:07.114Z,34.86
2017-09-04T09:54:35.411Z,37.75
2017-09-04T09:57:03.713Z,34.52
2017-09-04T09:59:32.064Z,31.70
2017-09-04T10:02:00.386Z,32.34
2017-09-04T10:04:28.676Z,36.88
2017-09-04T10:06:56.982Z,31.52
2017-09-04T10:09:25.287Z,30.49
2017-09-04T10:11:53.585Z,28.93
2017-09-04T10:14:21.894Z,26.66
2017-09-04T10:16:50.188Z,26.46
2017-09-04T10:19:18.498Z,27.99
2017-09-04T10:21:46.793Z,26.68
2017-09-04T10:24:15.106Z,25.50
2017-09-04T10:26:43.404Z,28.51
2017-09-04T10:29:11.715Z,28.14
2017-09-04T10:31:40.005Z,26.93
2017-09-04T10:34:08.344Z,27.43
2017-09-04T10:36:36.640Z,29.58
2017-09-04T10:39:04.953Z,29.34
2017-09-04T10:41:33.264Z,26.94
2017-09-04T10:44:01.553Z,26.07
2017-09-04T10:46:29.862Z,29.12
2017-09-04T10:48:58.172Z,30.99
2017-09-04T10:51:26.491Z,32.80
2017-09-04T10:53:54.788Z,33.04
2017-09-04T10:56:23.097Z,32.05
2017-09-04T10:58:51.388Z,32.53
2017-09-04T11:01:19.686Z,32.58
2017-09-04T11:03:47.989Z,31.07
2017-09-04T11:06:16.281Z,32.60
2017-09-04T11:08:44.589Z,31.67
2017-09-04T11:11:12.893Z,32.40
2017-09-04T11:13:41.193Z,33.99
2017-09-04T11:16:09.489Z,33.28
2017-09-04T11:18:37.803Z,35.21
2017-09-04T11:21:06.099Z,38.31
2017-09-04T11:23:34.390Z,38.04
2017-09-04T11:26:02.688Z,39.21
2017-09-04T11:28:30.986Z,39.29
2017-09-04T11:30:59.309Z,38.92
2017-09-04T11:33:27.611Z,38.98
2017-09-04T11:35:55.935Z,37.61
2017-09-04T11:38:24.235Z,37.04
2017-09-04T11:40:52.533Z,37.04
2017-09-04T11:43:20.832Z,39.35
2017-09-04T11:45:49.187Z,38.57
2017-09-04T11:48:17.473Z,36.48
2017-09-04T11:50:45.787Z,35.46
2017-09-04T11:53:14.097Z,36.98
2017-09-04T11:55:42.395Z,37.63
2017-09-04T11:58:10.700Z,37.60
2017-09-04T12:00:39.015Z,38.66
2017-09-04T12:03:07.324Z,39.38
2017-09-04T12:05:35.629Z,37.44
2017-09-04T12:08:03.941Z,37.71
2017-09-04T12:10:32.318Z,36.96
2017-09-04T12:13:00.617Z,40.54
2017-09-04T12:15:28.920Z,38.15
2017-09-04T12:17:57.233Z,36.87
2017-09-04T12:20:25.549Z,36.39
2017-09-04T12:22:53.845Z,35.07
2017-09-04T12:25:22.174Z,35.57
2017-09-04T12:27:50.480Z,34.70
2017-09-04T12:30:18.786Z,32.90
2017-09-04T12:32:47.085Z,34.57
2017-09-04T12:35:15.401Z,36.12
2017-09-04T12:37:43.706Z,33.90
2017-09-04T12:40:12.696Z,34.91
2017-09-04T12:42:41.018Z,35.17
2017-09-04T12:45:09.308Z,36.50
2017-09-04T12:47:37.621Z,37.47
2017-09-04T12:50:05.929Z,34.82
2017-09-04T12:52:34.238Z,34.41
2017-09-04T12:55:02.546Z,33.87
2017-09-04T12:57:30.850Z,33.67
2017-09-04T12:59:59.153Z,33.48
2017-09-04T13:02:27.468Z,32.02
2017-09-04T13:04:55.766Z,33.44
2017-09-04T13:07:24.107Z,33.25
2017-09-04T13:09:52.416Z,33.66
2017-09-04T13:12:22.554Z,33.28
2017-09-04T13:14:56.287Z,32.44
2017-09-04T13:17:36.294Z,32.93
2017-09-04T13:20:10.262Z,32.84
2017-09-04T13:22:43.881Z,33.20
2017-09-04T13:28:24.345Z,34.59
2017-09-04T13:30:58.134Z,35.77
2017-09-04T13:36:37.456Z,39.13
2017-09-04T13:42:26.168Z,38.64
2017-09-04T13:45:00.001Z,37.42
2017-09-04T13:47:33.573Z,38.09
2017-09-04T13:50:01.872Z,37.00
2017-09-04T13:55:34.641Z,36.17
2017-09-04T13:58:21.646Z,37.01
2017-09-04T14:00:55.617Z,36.67
2017-09-04T14:03:28.081Z,37.15
2017-09-04T14:12:26.272Z,38.27
2017-09-04T14:14:59.999Z,36.79
2017-09-04T14:17:33.921Z,37.61
2017-09-04T14:20:02.226Z,38.37
2017-09-04T14:22:30.532Z,37.37
2017-09-04T14:24:58.849Z,38.31
2017-09-04T14:27:27.136Z,36.04
2017-09-04T14:29:55.442Z,35.59
2017-09-04T14:32:23.749Z,35.59
2017-09-04T14:34:52.067Z,34.08
2017-09-04T14:37:20.375Z,34.29
2017-09-04T14:39:48.684Z,34.64
2017-09-04T14:42:16.981Z,35.93
2017-09-04T14:45:00.166Z,35.23
2017-09-04T14:47:30.806Z,33.44
2017-09-04T14:49:59.134Z,36.05
2017-09-04T14:52:27.438Z,35.60
2017-09-04T14:54:55.732Z,35.47
2017-09-04T14:57:24.067Z,34.83
2017-09-04T14:59:52.377Z,34.09
2017-09-04T15:02:20.693Z,34.29
2017-09-04T15:04:49.002Z,33.94
2017-09-04T15:07:17.313Z,34.98
2017-09-04T15:09:45.619Z,34.48
2017-09-04T15:12:13.921Z,35.64
2017-09-04T15:14:42.225Z,34.47
2017-09-04T15:17:10.567Z,34.45
2017-09-04T15:19:38.860Z,35.01
2017-09-04T15:22:07.168Z,36.00
2017-09-04T15:24:35.472Z,35.64
2017-09-04T15:27:03.773Z,34.96
2017-09-04T15:29:32.241Z,34.58
2017-09-04T15:32:00.529Z,36.31
2017-09-04T15:34:28.833Z,37.20
2017-09-04T15:36:57.134Z,37.34
2017-09-04T15:39:25.443Z,37.17
2017-09-04T15:41:53.733Z,37.77
2017-09-04T15:44:22.057Z,38.54
2017-09-04T15:46:50.374Z,38.51
2017-09-04T15:49:18.685Z,38.08
2017-09-04T15:51:46.998Z,38.56
2017-09-04T15:54:15.303Z,38.68
2017-09-04T15:56:43.621Z,39.58
2017-09-04T15:59:11.922Z,39.79
2017-09-04T16:01:40.233Z,39.18
2017-09-04T16:04:08.540Z,38.70
2017-09-04T16:06:37.168Z,39.62
2017-09-04T16:09:05.460Z,39.85
2017-09-04T16:11:34.054Z,39.79
2017-09-04T16:14:03.016Z,40.46
2017-09-04T16:16:41.879Z,41.49
2017-09-04T16:19:14.021Z,40.20
2017-09-04T16:21:43.153Z,40.45
2017-09-04T16:24:12.111Z,39.93
2017-09-04T16:26:46.717Z,40.57
2017-09-04T16:32:24.709Z,42.91
2017-09-04T16:34:54.916Z,42.51
2017-09-04T16:37:33.914Z,43.22
2017-09-04T16:40:02.220Z,43.23
2017-09-04T16:42:33.637Z,43.75
2017-09-04T16:45:06.729Z,43.83
2017-09-04T16:47:48.637Z,42.81
2017-09-04T16:50:27.769Z,44.17
2017-09-04T16:52:57.369Z,44.12
2017-09-04T16:58:30.984Z,44.94
2017-09-04T17:00:59.298Z,45.04
2017-09-04T17:03:27.599Z,45.47
2017-09-04T17:05:55.905Z,45.48
2017-09-04T17:08:40.014Z,46.60
2017-09-04T17:11:09.105Z,46.54
2017-09-04T17:13:37.406Z,46.86
2017-09-04T17:16:07.628Z,47.09
2017-09-04T17:18:35.928Z,47.23
2017-09-04T17:21:14.146Z,47.61
2017-09-04T17:23:42.460Z,47.96
2017-09-04T17:26:10.766Z,47.74
2017-09-04T17:28:39.068Z,48.58
2017-09-04T17:31:07.383Z,49.06
2017-09-04T17:33:35.696Z,49.23
2017-09-04T17:36:04.048Z,49.50
2017-09-04T17:38:32.351Z,49.98
2017-09-04T17:41:00.661Z,50.65
2017-09-04T17:43:28.972Z,51.62
2017-09-04T17:45:57.270Z,52.19
2017-09-04T17:48:25.592Z,52.70
2017-09-04T17:50:53.897Z,53.25
2017-09-04T17:53:22.200Z,53.79
2017-09-04T17:55:50.580Z,55.26
2017-09-04T17:58:18.914Z,55.06
2017-09-04T18:00:47.209Z,55.58
2017-09-04T18:03:15.509Z,56.01
2017-09-04T18:05:43.819Z,56.48
2017-09-04T18:08:12.112Z,56.60
2017-09-04T18:10:40.425Z,57.45
2017-09-04T18:13:08.732Z,58.52
2017-09-04T18:15:37.053Z,59.15
2017-09-04T18:18:05.356Z,59.55
2017-09-04T18:20:33.691Z,60.66
2017-09-04T18:23:01.989Z,62.08
2017-09-04T18:25:30.285Z,63.55
2017-09-04T18:27:58.587Z,64.01
2017-09-04T18:30:26.891Z,64.33
2017-09-04T18:32:55.206Z,64.76
2017-09-04T18:35:23.505Z,64.90
2017-09-04T18:37:51.830Z,65.36
2017-09-04T18:40:20.154Z,65.37
2017-09-04T18:42:48.470Z,65.63
2017-09-04T18:45:16.781Z,66.26
2017-09-04T18:47:45.119Z,65.98
2017-09-04T18:50:13.456Z,68.12
2017-09-04T18:52:41.781Z,69.90
2017-09-04T18:55:10.088Z,66.84
2017-09-04T18:57:38.388Z,68.14
2017-09-04T19:00:06.693Z,68.21
2017-09-04T19:02:35.031Z,69.14
2017-09-04T19:05:03.343Z,69.36
2017-09-04T19:07:31.651Z,69.47
2017-09-04T19:09:59.981Z,69.95
2017-09-04T19:12:28.291Z,70.84
2017-09-04T19:14:56.609Z,70.98
2017-09-04T19:17:24.909Z,71.29
2017-09-04T19:19:53.250Z,70.94
2017-09-04T19:22:21.613Z,70.90
2017-09-04T19:24:49.925Z,70.81
2017-09-04T19:27:18.253Z,71.48
2017-09-04T19:29:46.577Z,71.94
2017-09-04T19:32:14.924Z,72.12
2017-09-04T19:34:43.221Z,72.17
2017-09-04T19:37:11.537Z,72.69
2017-09-04T19:39:39.849Z,73.22
2017-09-04T19:42:08.161Z,73.54
2017-09-04T19:44:36.461Z,73.08
2017-09-04T19:47:04.784Z,74.13
2017-09-04T19:49:33.084Z,75.06
2017-09-04T19:52:01.382Z,74.78
2017-09-04T19:54:29.697Z,74.96
2017-09-04T19:56:57.989Z,75.14
2017-09-04T19:59:26.305Z,75.55
2017-09-04T20:01:54.592Z,75.25
2017-09-04T20:04:22.924Z,75.65
2017-09-04T20:06:51.521Z,75.22
2017-09-04T20:09:19.875Z,74.78
2017-09-04T20:11:48.166Z,75.14
2017-09-04T20:14:16.477Z,75.94
2017-09-04T20:16:44.785Z,75.65
2017-09-04T20:19:13.086Z,75.46
2017-09-04T20:21:41.401Z,75.63
2017-09-04T20:24:09.701Z,75.40
2017-09-04T20:26:38.017Z,75.15
2017-09-04T20:29:07.154Z,75.52
2017-09-04T20:31:35.477Z,75.83
2017-09-04T20:34:03.778Z,76.68
2017-09-04T20:36:32.105Z,76.45
2017-09-04T20:39:00.422Z,77.38
2017-09-04T20:41:28.750Z,77.69
2017-09-04T20:43:57.061Z,77.36
2017-09-04T20:46:25.352Z,78.11
2017-09-04T20:48:53.663Z,77.73
2017-09-04T20:51:21.957Z,77.24
2017-09-04T20:53:50.266Z,76.49
2017-09-04T20:56:18.574Z,77.39
2017-09-04T20:58:46.880Z,77.27
2017-09-04T21:01:15.181Z,77.01
2017-09-04T21:03:43.485Z,77.28
2017-09-04T21:06:11.776Z,77.72
2017-09-04T21:08:40.085Z,78.24
2017-09-04T21:11:08.386Z,78.57
2017-09-04T21:13:36.710Z,78.12
2017-09-04T21:16:05.020Z,78.09
2017-09-04T21:18:33.358Z,78.09
2017-09-04T21:21:01.668Z,78.62
2017-09-04T21:23:29.962Z,78.87
2017-09-04T21:25:58.274Z,79.22
2017-09-04T21:28:26.577Z,79.15
2017-09-04T21:30:54.898Z,79.18
2017-09-04T21:33:23.205Z,79.39
2017-09-04T21:35:51.513Z,79.49
2017-09-04T21:38:19.832Z,79.00
2017-09-04T21:40:48.152Z,78.95
2017-09-04T21:43:17.274Z,79.13
2017-09-04T21:45:45.596Z,79.04
2017-09-04T21:48:14.822Z,79.42
2017-09-04T21:50:43.165Z,79.13
2017-09-04T21:53:11.466Z,79.02
2017-09-04T21:55:40.665Z,78.57
2017-09-04T21:58:08.994Z,78.75
2017-09-04T22:00:37.308Z,79.26
2017-09-04T22:03:05.625Z,78.40
2017-09-04T22:05:33.945Z,78.45
2017-09-04T22:08:02.278Z,78.43
2017-09-04T22:10:30.589Z,78.46
2017-09-04T22:12:58.918Z,78.47
2017-09-04T22:15:27.226Z,78.79
2017-09-04T22:17:55.553Z,78.27
2017-09-04T22:20:23.873Z,79.21
2017-09-04T22:22:52.595Z,78.95
2017-09-04T22:25:21.169Z,79.09
2017-09-04T22:27:49.592Z,79.91
2017-09-04T22:30:17.939Z,79.24
2017-09-04T22:32:46.249Z,78.99
2017-09-04T22:35:14.597Z,79.15
2017-09-04T22:37:42.909Z,79.31
2017-09-04T22:40:11.209Z,79.13
2017-09-04T22:42:39.549Z,79.65
2017-09-04T22:45:07.853Z,79.52
2017-09-04T22:47:36.165Z,79.55
2017-09-04T22:50:04.475Z,79.87
2017-09-04T22:52:32.809Z,80.57
2017-09-04T22:55:01.138Z,81.06
2017-09-04T22:57:29.495Z,80.60
2017-09-04T22:59:57.805Z,80.55
2017-09-04T23:02:26.106Z,80.69
2017-09-04T23:04:54.421Z,80.69
2017-09-04T23:07:22.733Z,80.59
2017-09-04T23:09:51.057Z,81.60
2017-09-04T23:12:19.365Z,82.04
2017-09-04T23:14:47.673Z,82.07
2017-09-04T23:17:15.986Z,81.69
2017-09-04T23:19:44.315Z,81.48
2017-09-04T23:22:12.629Z,81.32
2017-09-04T23:24:40.937Z,81.24
2017-09-04T23:27:09.241Z,81.04
2017-09-04T23:29:37.569Z,81.21
2017-09-04T23:32:05.894Z,81.76
2017-09-04T23:34:34.197Z,80.93
2017-09-04T23:37:02.535Z,81.24
2017-09-04T23:39:30.845Z,80.92
2017-09-04T23:41:59.156Z,81.32
2017-09-04T23:44:27.474Z,81.18
2017-09-04T23:47:01.736Z,81.11
2017-09-04T23:49:30.063Z,81.05
2017-09-04T23:51:58.372Z,81.45
2017-09-04T23:54:26.693Z,81.96
2017-09-04T23:56:54.992Z,81.94
2017-09-04T23:59:23.305Z,82.15
